createdAt,value
2023-03-22T00:02:22.888Z,5.40
2023-03-22T00:04:49.682Z,4.80
2023-03-22T00:07:16.374Z,6.27
2023-03-22T00:09:43.239Z,5.73
2023-03-22T00:12:09.931Z,7.20
2023-03-22T00:14:36.681Z,6.60
2023-03-22T00:17:03.424Z,5.63
2023-03-22T00:19:31.432Z,6.50
2023-03-22T00:21:58.101Z,6.50
2023-03-22T00:24:24.864Z,7.30
2023-03-22T00:26:51.516Z,6.20
2023-03-22T00:29:18.197Z,5.63
2023-03-22T00:31:45.239Z,6.20
2023-03-22T00:34:12.057Z,6.47
2023-03-22T00:36:40.468Z,6.13
2023-03-22T00:39:07.137Z,7.13
2023-03-22T00:41:33.910Z,6.70
2023-03-22T00:44:00.627Z,7.70
2023-03-22T00:46:27.349Z,6.93
2023-03-22T00:48:54.163Z,8.80
2023-03-22T00:51:20.901Z,7.47
2023-03-22T00:53:49.057Z,7.80
2023-03-22T00:56:16.071Z,7.00
2023-03-22T00:58:43.350Z,7.37
2023-03-22T01:01:10.702Z,7.90
2023-03-22T01:03:37.382Z,7.77
2023-03-22T01:06:04.301Z,8.20
2023-03-22T01:08:30.938Z,8.87
2023-03-22T01:10:59.646Z,8.13
2023-03-22T01:13:26.308Z,7.43
2023-03-22T01:15:53.085Z,9.53
2023-03-22T01:18:19.826Z,8.33
2023-03-22T01:20:46.509Z,8.10
2023-03-22T01:23:13.219Z,9.50
2023-03-22T01:25:39.940Z,9.50
2023-03-22T01:28:08.355Z,8.90
2023-03-22T01:30:35.141Z,8.47
2023-03-22T01:33:01.957Z,9.63
2023-03-22T01:35:28.719Z,9.10
2023-03-22T01:37:55.688Z,9.20
2023-03-22T01:40:22.465Z,9.60
2023-03-22T01:42:49.225Z,8.80
2023-03-22T01:45:40.123Z,9.17
2023-03-22T01:48:18.899Z,8.80
2023-03-22T01:50:51.392Z,9.80
2023-03-22T01:53:18.699Z,10.00
2023-03-22T01:55:46.603Z,9.30
2023-03-22T01:58:15.229Z,9.90
2023-03-22T02:00:43.499Z,9.83
2023-03-22T02:03:12.902Z,9.47
2023-03-22T02:05:40.943Z,10.07
2023-03-22T02:08:07.663Z,10.30
2023-03-22T02:10:36.775Z,10.20
2023-03-22T02:13:19.505Z,8.83
2023-03-22T02:15:55.379Z,9.00
2023-03-22T02:18:37.281Z,10.33
2023-03-22T02:21:37.934Z,9.70
2023-03-22T02:24:45.254Z,9.97
2023-03-22T02:27:50.105Z,8.90
2023-03-22T02:30:54.548Z,9.67
2023-03-22T02:33:41.184Z,9.53
2023-03-22T02:36:25.884Z,11.47
2023-03-22T02:39:05.956Z,10.10
2023-03-22T02:41:47.085Z,10.43
2023-03-22T02:44:24.399Z,9.40
2023-03-22T02:46:59.966Z,9.97
2023-03-22T02:49:34.887Z,10.00
2023-03-22T02:52:05.811Z,10.63
2023-03-22T02:54:39.785Z,10.70
2023-03-22T02:57:11.570Z,9.93
2023-03-22T02:59:40.586Z,10.73
2023-03-22T03:02:11.091Z,11.27
2023-03-22T03:04:42.806Z,10.50
2023-03-22T03:07:12.806Z,10.60
2023-03-22T03:09:42.505Z,10.70
2023-03-22T03:12:13.140Z,11.30
2023-03-22T03:14:39.830Z,9.40
2023-03-22T03:17:21.635Z,10.67
2023-03-22T03:20:00.268Z,11.90
2023-03-22T03:22:37.767Z,12.80
2023-03-22T03:25:12.554Z,11.17
2023-03-22T03:27:44.319Z,11.07
2023-03-22T03:30:13.937Z,10.70
2023-03-22T03:32:46.744Z,10.63
2023-03-22T03:35:17.602Z,10.30
2023-03-22T03:37:48.636Z,11.60
2023-03-22T03:40:20.438Z,12.70
2023-03-22T03:42:50.436Z,11.40
2023-03-22T03:45:18.590Z,10.30
2023-03-22T03:47:47.145Z,10.93
2023-03-22T03:50:16.120Z,11.83
2023-03-22T03:52:43.257Z,11.03
2023-03-22T03:55:10.447Z,10.67
2023-03-22T03:57:38.567Z,11.60
2023-03-22T04:00:06.517Z,12.00
2023-03-22T04:02:33.267Z,11.00
2023-03-22T04:04:59.930Z,10.80
2023-03-22T04:07:26.633Z,10.47
2023-03-22T04:09:53.332Z,10.97
2023-03-22T04:12:20.014Z,11.07
2023-03-22T04:14:48.042Z,10.43
2023-03-22T04:17:14.694Z,11.20
2023-03-22T04:19:41.389Z,11.50
2023-03-22T04:22:08.076Z,10.93
2023-03-22T04:24:34.856Z,11.47
2023-03-22T04:27:03.445Z,10.67
2023-03-22T04:29:30.226Z,11.17
2023-03-22T04:31:58.416Z,10.80
2023-03-22T04:34:25.222Z,11.70
2023-03-22T04:36:51.931Z,11.40
2023-03-22T04:39:18.769Z,10.80
2023-03-22T04:41:45.488Z,10.33
2023-03-22T04:44:12.206Z,10.67
2023-03-22T04:46:39.089Z,11.57
2023-03-22T04:49:07.965Z,11.33
2023-03-22T04:51:34.688Z,12.27
2023-03-22T04:54:01.520Z,11.27
2023-03-22T04:56:28.284Z,12.17
2023-03-22T04:58:54.969Z,11.60
2023-03-22T05:01:21.692Z,11.67
2023-03-22T05:03:48.381Z,13.37
2023-03-22T05:06:16.521Z,11.60
2023-03-22T05:08:43.302Z,13.10
2023-03-22T05:11:12.655Z,12.60
2023-03-22T05:13:40.018Z,12.40
2023-03-22T05:16:08.121Z,12.17
2023-03-22T05:18:35.909Z,13.50
2023-03-22T05:21:02.850Z,11.40
2023-03-22T05:23:30.878Z,11.40
2023-03-22T05:25:57.838Z,11.70
2023-03-22T05:28:25.050Z,12.40
2023-03-22T05:30:51.785Z,11.97
2023-03-22T05:33:18.508Z,11.50
2023-03-22T05:35:45.220Z,12.63
2023-03-22T05:38:11.960Z,12.17
2023-03-22T05:40:40.238Z,12.40
2023-03-22T05:43:07.146Z,12.40
2023-03-22T05:45:36.104Z,11.27
2023-03-22T05:48:03.401Z,11.63
2023-03-22T05:50:30.153Z,12.57
2023-03-22T05:52:57.049Z,12.30
2023-03-22T05:55:23.729Z,11.70
2023-03-22T05:57:51.959Z,11.10
2023-03-22T06:00:19.857Z,10.80
2023-03-22T06:02:48.889Z,11.93
2023-03-22T06:05:16.688Z,12.50
2023-03-22T06:07:44.283Z,12.13
2023-03-22T06:10:13.234Z,14.37
2023-03-22T06:12:40.131Z,13.37
2023-03-22T06:15:10.042Z,12.37
2023-03-22T06:17:37.325Z,11.83
2023-03-22T06:20:04.444Z,12.63
2023-03-22T06:22:31.434Z,11.97
2023-03-22T06:24:58.077Z,12.10
2023-03-22T06:27:24.744Z,12.30
2023-03-22T06:29:51.457Z,11.70
2023-03-22T06:32:19.766Z,11.60
2023-03-22T06:34:46.449Z,11.90
2023-03-22T06:37:13.123Z,10.00
2023-03-22T06:39:39.824Z,11.53
2023-03-22T06:42:06.519Z,11.43
2023-03-22T06:44:33.196Z,11.23
2023-03-22T06:46:59.929Z,11.10
2023-03-22T06:49:28.184Z,12.20
2023-03-22T06:51:54.961Z,11.10
2023-03-22T06:54:21.629Z,12.10
2023-03-22T06:56:48.386Z,10.37
2023-03-22T06:59:15.056Z,12.30
2023-03-22T07:01:41.845Z,11.80
2023-03-22T07:04:08.614Z,12.60
2023-03-22T07:06:36.730Z,11.37
2023-03-22T07:09:03.553Z,10.47
2023-03-22T07:11:30.254Z,11.90
2023-03-22T07:13:56.992Z,12.20
2023-03-22T07:16:23.802Z,13.40
2023-03-22T07:18:50.544Z,12.80
2023-03-22T07:21:17.239Z,11.40
2023-03-22T07:23:45.421Z,11.97
2023-03-22T07:26:12.089Z,11.70
2023-03-22T07:28:46.316Z,10.30
2023-03-22T07:31:31.695Z,11.50
2023-03-22T07:33:58.355Z,11.47
2023-03-22T07:36:25.036Z,10.60
2023-03-22T07:38:53.302Z,12.60
2023-03-22T07:41:20.070Z,11.00
2023-03-22T07:43:55.230Z,12.67
2023-03-22T07:46:25.247Z,11.83
2023-03-22T07:48:55.062Z,11.70
2023-03-22T07:51:21.867Z,11.97
2023-03-22T07:53:48.649Z,12.73
2023-03-22T07:56:16.779Z,10.97
2023-03-22T07:58:43.639Z,12.03
2023-03-22T08:01:12.383Z,13.50
2023-03-22T08:03:39.414Z,11.77
2023-03-22T08:06:07.086Z,12.37
2023-03-22T08:08:34.443Z,10.77
2023-03-22T08:11:01.561Z,13.40
2023-03-22T08:13:30.219Z,14.90
2023-03-22T08:15:57.230Z,12.67
2023-03-22T08:18:24.072Z,13.73
2023-03-22T08:20:53.926Z,12.73
2023-03-22T08:23:28.796Z,12.90
2023-03-22T08:26:01.746Z,11.73
2023-03-22T08:28:29.999Z,10.60
2023-03-22T08:30:56.773Z,10.17
2023-03-22T08:33:23.884Z,12.97
2023-03-22T08:35:51.008Z,13.03
2023-03-22T08:38:17.842Z,9.50
2023-03-22T08:40:46.791Z,9.87
2023-03-22T08:43:13.573Z,11.60
2023-03-22T08:45:41.985Z,11.17
2023-03-22T08:48:09.180Z,9.37
2023-03-22T08:50:36.062Z,12.17
2023-03-22T08:53:02.866Z,9.67
2023-03-22T08:55:30.959Z,11.13
2023-03-22T08:57:57.817Z,10.20
2023-03-22T09:00:25.000Z,11.23
2023-03-22T09:02:53.364Z,10.97
2023-03-22T09:05:20.142Z,10.70
2023-03-22T09:07:47.104Z,12.17
2023-03-22T09:10:13.927Z,10.03
2023-03-22T09:12:40.676Z,10.67
2023-03-22T09:15:08.853Z,10.30
2023-03-22T09:17:35.598Z,9.93
2023-03-22T09:20:12.474Z,8.67
2023-03-22T09:22:39.955Z,9.50
2023-03-22T09:25:07.997Z,9.53
2023-03-22T09:27:34.794Z,8.90
2023-03-22T09:30:01.734Z,9.30
2023-03-22T09:32:28.588Z,9.00
2023-03-22T09:34:55.480Z,9.50
2023-03-22T09:37:23.678Z,10.03
2023-03-22T09:39:50.560Z,8.10
2023-03-22T09:42:29.586Z,9.20
2023-03-22T09:44:57.623Z,9.30
2023-03-22T09:47:44.458Z,11.07
2023-03-22T09:50:15.125Z,10.17
2023-03-22T09:52:44.245Z,9.00
2023-03-22T09:55:19.083Z,8.97
2023-03-22T09:57:53.041Z,8.47
2023-03-22T10:00:29.924Z,7.33
2023-03-22T10:03:04.981Z,7.40
2023-03-22T10:05:39.645Z,6.83
2023-03-22T10:08:36.115Z,7.43
2023-03-22T10:11:07.465Z,7.30
2023-03-22T10:13:40.046Z,6.93
2023-03-22T10:16:25.882Z,7.30
2023-03-22T10:19:08.164Z,7.17
2023-03-22T10:21:36.187Z,5.80
2023-03-22T10:24:12.627Z,6.60
2023-03-22T10:26:41.897Z,6.10
2023-03-22T10:29:25.833Z,6.30
2023-03-22T10:31:53.971Z,5.83
2023-03-22T10:34:23.018Z,6.10
2023-03-22T10:36:53.828Z,6.43
2023-03-22T10:39:30.449Z,5.43
2023-03-22T10:42:04.078Z,5.57
2023-03-22T10:44:46.106Z,5.50
2023-03-22T10:47:18.627Z,5.50
2023-03-22T10:49:50.506Z,3.87
2023-03-22T10:52:27.806Z,4.93
2023-03-22T10:55:03.807Z,4.37
2023-03-22T10:57:36.187Z,4.60
2023-03-22T11:00:13.956Z,3.83
2023-03-22T11:02:51.463Z,4.00
2023-03-22T11:05:28.892Z,4.90
2023-03-22T11:08:17.065Z,3.83
2023-03-22T11:10:51.998Z,4.00
2023-03-22T11:13:29.290Z,3.77
2023-03-22T11:16:17.579Z,2.87
2023-03-22T11:18:48.021Z,3.17
2023-03-22T11:21:17.983Z,3.70
2023-03-22T11:23:57.031Z,3.97
2023-03-22T11:26:32.212Z,3.97
2023-03-22T11:29:15.877Z,3.80
2023-03-22T11:31:55.629Z,3.13
2023-03-22T11:34:26.350Z,2.93
2023-03-22T11:36:56.687Z,2.63
2023-03-22T11:39:29.668Z,2.90
2023-03-22T11:42:03.191Z,2.60
2023-03-22T11:44:38.245Z,3.27
2023-03-22T11:47:15.375Z,2.80
2023-03-22T11:49:52.368Z,3.47
2023-03-22T11:52:25.263Z,3.30
2023-03-22T11:54:55.776Z,2.83
2023-03-22T11:57:27.342Z,3.00
2023-03-22T12:00:00.415Z,2.90
2023-03-22T12:02:36.754Z,3.00
2023-03-22T12:05:14.048Z,2.83
2023-03-22T12:07:42.841Z,2.00
2023-03-22T12:10:19.242Z,2.23
2023-03-22T12:12:54.407Z,2.03
2023-03-22T12:15:24.344Z,2.70
2023-03-22T12:17:56.645Z,2.13
2023-03-22T12:20:38.304Z,2.43
2023-03-22T12:23:13.675Z,2.83
2023-03-22T12:25:43.862Z,2.73
2023-03-22T12:28:16.268Z,2.23
2023-03-22T12:30:54.548Z,2.80
2023-03-22T12:33:28.298Z,2.30
2023-03-22T12:35:58.572Z,2.57
2023-03-22T12:38:35.390Z,2.97
2023-03-22T12:41:08.826Z,2.90
2023-03-22T12:43:52.046Z,2.73
2023-03-22T12:46:25.473Z,2.77
2023-03-22T12:49:00.564Z,2.23
2023-03-22T12:51:27.826Z,2.67
2023-03-22T12:53:57.361Z,2.57
2023-03-22T12:56:30.782Z,2.60
2023-03-22T12:59:03.595Z,2.70
2023-03-22T13:01:43.705Z,2.57
2023-03-22T13:04:31.758Z,3.20
2023-03-22T13:09:53.220Z,3.33
2023-03-22T13:12:29.876Z,3.33
2023-03-22T13:15:05.166Z,3.20
2023-03-22T13:17:45.307Z,3.10
2023-03-22T13:20:25.272Z,3.67
2023-03-22T13:23:09.298Z,3.23
2023-03-22T13:25:37.881Z,3.00
2023-03-22T13:28:23.053Z,3.20
2023-03-22T13:30:56.759Z,2.93
2023-03-22T13:33:39.847Z,3.50
2023-03-22T13:36:25.285Z,3.17
2023-03-22T13:38:58.174Z,2.87
2023-03-22T13:41:28.872Z,3.17
2023-03-22T13:44:08.545Z,3.17
2023-03-22T13:47:00.265Z,3.10
2023-03-22T13:49:53.173Z,2.77
2023-03-22T13:52:36.993Z,3.77
2023-03-22T13:55:33.678Z,3.70
2023-03-22T13:58:06.548Z,3.67
2023-03-22T14:00:51.378Z,3.00
2023-03-22T14:03:31.206Z,3.13
2023-03-22T14:06:09.978Z,2.40
2023-03-22T14:08:41.109Z,3.90
2023-03-22T14:11:23.074Z,3.60
2023-03-22T14:13:59.491Z,3.27
2023-03-22T14:16:36.804Z,2.97
2023-03-22T14:19:13.993Z,3.30
2023-03-22T14:21:52.550Z,3.07
